createdAt,value
2023-04-15T00:03:57.652Z,66.33
2023-04-15T00:13:59.252Z,66.15
2023-04-15T00:24:01.096Z,68.26
2023-04-15T00:34:02.477Z,67.30
2023-04-15T00:44:03.924Z,67.58
2023-04-15T00:54:08.199Z,68.14
2023-04-15T01:04:11.662Z,68.13
2023-04-15T01:14:13.526Z,68.76
2023-04-15T01:24:18.569Z,68.35
2023-04-15T01:34:20.118Z,68.83
2023-04-15T01:44:21.647Z,69.30
2023-04-15T01:54:23.054Z,69.77
2023-04-15T02:04:24.601Z,70.49
2023-04-15T02:14:26.131Z,71.25
2023-04-15T02:24:28.586Z,71.29
2023-04-15T02:34:30.476Z,71.68
2023-04-15T02:44:32.861Z,71.53
2023-04-15T02:54:34.216Z,72.16
2023-04-15T03:04:36.042Z,74.03
2023-04-15T03:14:37.432Z,73.23
2023-04-15T03:24:38.818Z,73.94
2023-04-15T03:34:40.211Z,76.12
2023-04-15T03:44:41.735Z,74.29
2023-04-15T03:54:43.280Z,75.51
2023-04-15T04:04:44.695Z,75.48
2023-04-15T04:14:46.133Z,76.02
2023-04-15T04:24:47.598Z,76.03
2023-04-15T04:34:48.934Z,77.07
2023-04-15T04:44:50.278Z,80.35
2023-04-15T04:54:51.741Z,78.19
2023-04-15T05:04:54.523Z,79.77
2023-04-15T05:14:56.028Z,79.93
2023-04-15T05:24:57.398Z,79.20
2023-04-15T05:34:58.929Z,79.38
2023-04-15T05:45:00.332Z,80.63
2023-04-15T05:55:02.126Z,79.46
2023-04-15T06:05:04.057Z,80.42
2023-04-15T06:15:06.624Z,86.20
2023-04-15T06:25:09.236Z,82.54
2023-04-15T06:35:11.772Z,81.32
2023-04-15T06:45:13.277Z,83.66
2023-04-15T06:55:14.886Z,86.15
2023-04-15T07:05:16.437Z,80.96
2023-04-15T07:15:17.984Z,79.71
2023-04-15T07:25:19.545Z,78.03
2023-04-15T07:35:21.593Z,77.25
2023-04-15T07:45:22.954Z,76.15
2023-04-15T07:55:25.389Z,74.97
2023-04-15T08:05:27.491Z,75.01
2023-04-15T08:15:28.976Z,72.44
2023-04-15T08:25:30.468Z,71.40
2023-04-15T08:35:31.852Z,71.36
2023-04-15T08:45:33.771Z,70.73
2023-04-15T08:55:36.914Z,70.91
2023-04-15T09:05:38.816Z,71.48
2023-04-15T09:15:40.511Z,71.52
2023-04-15T09:25:42.502Z,71.84
2023-04-15T09:35:57.693Z,71.16
2023-04-15T09:45:59.211Z,72.03
2023-04-15T09:56:02.439Z,71.83
2023-04-15T10:06:05.571Z,72.93
2023-04-15T10:16:14.742Z,73.43
2023-04-15T10:26:20.232Z,73.41
2023-04-15T10:36:22.229Z,74.92
2023-04-15T10:46:38.678Z,74.08
2023-04-15T10:56:45.554Z,72.49
2023-04-15T11:06:47.068Z,73.91
2023-04-15T11:16:48.782Z,72.85
2023-04-15T11:26:50.271Z,73.72
2023-04-15T11:36:57.114Z,73.37
2023-04-15T11:46:58.525Z,71.83
2023-04-15T11:57:01.835Z,71.60
2023-04-15T12:07:06.490Z,71.55
2023-04-15T12:17:10.644Z,72.61
2023-04-15T12:27:13.068Z,72.29
2023-04-15T12:37:14.542Z,71.53
2023-04-15T12:47:16.111Z,72.03
2023-04-15T12:57:17.485Z,72.56
2023-04-15T13:07:18.835Z,74.20
2023-04-15T13:17:22.040Z,74.65
2023-04-15T13:27:23.909Z,73.52
2023-04-15T13:37:29.409Z,73.99
2023-04-15T13:47:31.018Z,74.39
2023-04-15T13:57:32.665Z,75.67
2023-04-15T14:07:34.387Z,76.05
2023-04-15T14:17:36.107Z,75.68
2023-04-15T14:27:37.526Z,79.40
2023-04-15T14:37:38.892Z,80.70
2023-04-15T14:47:40.918Z,81.59
2023-04-15T14:57:43.018Z,83.78
2023-04-15T15:07:44.452Z,82.94
2023-04-15T15:17:45.971Z,81.33
2023-04-15T15:27:47.607Z,82.44
2023-04-15T15:37:48.996Z,82.93
2023-04-15T15:47:50.681Z,85.74
2023-04-15T15:57:52.286Z,86.99
2023-04-15T16:07:53.719Z,86.86
2023-04-15T16:17:55.403Z,86.74
2023-04-15T16:28:01.494Z,86.84
2023-04-15T16:38:07.351Z,85.64
2023-04-15T16:48:08.716Z,87.26
2023-04-15T16:58:10.245Z,85.35
2023-04-15T17:08:11.831Z,85.74
2023-04-15T17:18:13.378Z,86.58
2023-04-15T17:28:14.726Z,88.38
2023-04-15T17:38:16.344Z,89.90
2023-04-15T17:48:17.783Z,88.37
2023-04-15T17:58:22.248Z,91.33
2023-04-15T18:08:23.724Z,91.18
2023-04-15T18:18:25.308Z,90.91
2023-04-15T18:28:26.696Z,92.93
2023-04-15T18:38:28.283Z,94.56
2023-04-15T18:48:30.893Z,96.09
2023-04-15T18:59:26.981Z,98.80
2023-04-15T19:08:53.948Z,98.75
2023-04-15T19:18:55.425Z,98.13
2023-04-15T19:28:58.768Z,99.17
2023-04-15T19:39:01.452Z,96.78
2023-04-15T19:49:03.152Z,96.68
2023-04-15T19:59:05.174Z,95.85
2023-04-15T20:09:07.708Z,100.00
2023-04-15T20:19:12.327Z,98.35
2023-04-15T20:29:13.961Z,100.00
2023-04-15T20:39:15.788Z,100.00
2023-04-15T20:49:17.605Z,100.00
2023-04-15T20:59:19.195Z,100.00
2023-04-15T21:09:20.635Z,100.00
2023-04-15T21:19:22.015Z,100.00
2023-04-15T21:29:23.872Z,98.86
2023-04-15T21:39:25.408Z,99.52
2023-04-15T21:49:26.944Z,97.75
2023-04-15T21:59:28.807Z,98.48
2023-04-15T22:09:30.892Z,99.22
2023-04-15T22:19:32.478Z,98.77
2023-04-15T22:29:34.455Z,99.10
2023-04-15T22:39:36.264Z,100.00
2023-04-15T22:49:37.792Z,100.00
2023-04-15T22:59:39.350Z,98.02
2023-04-15T23:09:41.022Z,98.63
2023-04-15T23:19:42.575Z,98.68
2023-04-15T23:29:44.046Z,99.29
2023-04-15T23:39:45.438Z,100.00
2023-04-15T23:49:47.736Z,100.00
2023-04-15T23:59:49.185Z,100.00
